createdAt,value
2019-03-10T00:02:07.558Z,65.50
2019-03-10T00:04:38.815Z,65.25
2019-03-10T00:07:10.086Z,65.39
2019-03-10T00:09:41.358Z,65.21
2019-03-10T00:12:12.618Z,65.12
2019-03-10T00:14:43.925Z,65.43
2019-03-10T00:17:15.249Z,64.74
2019-03-10T00:19:46.459Z,65.42
2019-03-10T00:22:17.802Z,65.04
2019-03-10T00:24:49.048Z,65.75
2019-03-10T00:27:20.345Z,66.52
2019-03-10T00:29:51.640Z,66.39
2019-03-10T00:32:41.756Z,66.09
2019-03-10T00:38:15.154Z,66.00
2019-03-10T00:42:09.264Z,65.91
2019-03-10T00:45:32.889Z,66.29
2019-03-10T00:49:14.618Z,66.30
2019-03-10T00:52:36.962Z,66.37
2019-03-10T00:55:08.218Z,67.03
2019-03-10T00:57:39.584Z,67.40
2019-03-10T01:00:17.502Z,67.41
2019-03-10T01:02:48.669Z,67.44
2019-03-10T01:05:20.484Z,67.63
2019-03-10T01:07:55.069Z,68.05
2019-03-10T01:10:26.385Z,68.08
2019-03-10T01:12:57.769Z,68.43
2019-03-10T01:15:29.466Z,68.31
2019-03-10T01:18:02.182Z,68.71
2019-03-10T01:20:34.004Z,69.26
2019-03-10T01:23:05.371Z,69.20
2019-03-10T01:25:36.629Z,68.92
2019-03-10T01:28:10.258Z,69.28
2019-03-10T01:31:11.010Z,69.37
2019-03-10T01:34:51.081Z,69.86
2019-03-10T01:37:22.334Z,70.08
2019-03-10T01:39:53.594Z,70.01
2019-03-10T01:42:24.806Z,70.06
2019-03-10T01:44:56.058Z,70.75
2019-03-10T01:47:27.356Z,71.07
2019-03-10T01:49:58.497Z,71.52
2019-03-10T01:52:29.781Z,71.66
2019-03-10T01:55:01.068Z,72.55
2019-03-10T01:57:32.345Z,72.91
2019-03-10T02:00:22.602Z,72.79
2019-03-10T02:03:12.745Z,72.59
2019-03-10T02:05:43.978Z,73.10
2019-03-10T02:08:15.234Z,73.07
2019-03-10T02:10:46.400Z,73.56
2019-03-10T02:13:17.592Z,73.42
2019-03-10T02:15:48.849Z,73.46
2019-03-10T02:18:20.044Z,73.67
2019-03-10T02:20:51.265Z,73.81
2019-03-10T02:23:22.470Z,73.93
2019-03-10T02:25:53.765Z,73.86
2019-03-10T02:28:24.952Z,74.12
2019-03-10T02:30:56.188Z,73.99
2019-03-10T02:33:27.401Z,74.45
2019-03-10T02:35:58.618Z,75.08
2019-03-10T02:38:29.922Z,75.53
2019-03-10T02:41:01.149Z,76.08
2019-03-10T02:43:32.380Z,76.32
2019-03-10T02:46:03.536Z,76.96
2019-03-10T02:48:34.787Z,78.27
2019-03-10T02:51:06.003Z,78.56
2019-03-10T02:53:37.311Z,78.73
2019-03-10T02:56:08.444Z,78.90
2019-03-10T02:58:39.683Z,78.39
2019-03-10T03:01:10.944Z,77.60
2019-03-10T03:03:42.128Z,78.21
2019-03-10T03:06:13.447Z,77.97
2019-03-10T03:08:44.611Z,79.13
2019-03-10T03:11:15.817Z,79.16
2019-03-10T03:13:47.073Z,79.54
2019-03-10T03:16:18.315Z,80.09
2019-03-10T03:18:49.524Z,80.52
2019-03-10T03:21:20.889Z,80.48
2019-03-10T03:23:52.127Z,81.13
2019-03-10T03:26:23.443Z,80.79
2019-03-10T03:28:54.656Z,81.42
2019-03-10T03:31:26.087Z,81.94
2019-03-10T03:33:57.275Z,82.46
2019-03-10T03:36:32.533Z,83.71
2019-03-10T03:39:22.077Z,84.13
2019-03-10T03:41:53.355Z,84.17
2019-03-10T03:44:24.494Z,84.74
2019-03-10T03:46:55.761Z,84.86
2019-03-10T03:49:26.989Z,84.94
2019-03-10T03:51:58.369Z,85.06
2019-03-10T03:54:29.510Z,85.03
2019-03-10T03:57:00.688Z,84.37
2019-03-10T03:59:31.953Z,84.59
2019-03-10T04:02:16.421Z,84.89
2019-03-10T04:04:47.659Z,85.16
2019-03-10T04:07:18.946Z,85.28
2019-03-10T04:09:50.170Z,85.08
2019-03-10T04:12:21.384Z,85.53
2019-03-10T04:14:52.577Z,85.80
2019-03-10T04:17:23.818Z,85.97
2019-03-10T04:19:55.062Z,85.35
2019-03-10T04:22:26.398Z,84.93
2019-03-10T04:24:57.545Z,84.71
2019-03-10T04:27:28.821Z,84.63
2019-03-10T04:30:00.042Z,84.77
2019-03-10T04:32:31.360Z,84.77
2019-03-10T04:35:02.573Z,85.22
2019-03-10T04:37:33.714Z,85.60
2019-03-10T04:40:05.236Z,85.47
2019-03-10T04:42:36.511Z,85.55
2019-03-10T04:45:08.160Z,85.87
2019-03-10T04:47:39.423Z,86.07
2019-03-10T04:50:10.839Z,86.10
2019-03-10T04:52:42.199Z,85.76
2019-03-10T04:55:44.147Z,85.82
2019-03-10T04:58:16.156Z,85.97
2019-03-10T05:00:50.926Z,86.36
2019-03-10T05:03:22.224Z,86.47
2019-03-10T05:05:53.484Z,86.63
2019-03-10T05:08:24.624Z,86.76
2019-03-10T05:10:55.956Z,86.97
2019-03-10T05:13:27.123Z,86.15
2019-03-10T05:15:58.389Z,85.73
2019-03-10T05:18:29.616Z,85.86
2019-03-10T05:21:00.761Z,86.30
2019-03-10T05:23:38.588Z,86.54
2019-03-10T05:26:09.885Z,86.70
2019-03-10T05:28:47.117Z,86.67
2019-03-10T05:31:18.404Z,86.54
2019-03-10T05:33:49.611Z,86.79
2019-03-10T05:36:20.730Z,86.74
2019-03-10T05:38:51.979Z,86.31
2019-03-10T05:41:23.149Z,86.22
2019-03-10T05:43:54.399Z,86.05
2019-03-10T05:46:25.709Z,86.20
2019-03-10T05:48:56.966Z,86.22
2019-03-10T05:51:28.162Z,86.19
2019-03-10T05:53:59.419Z,86.54
2019-03-10T05:56:30.559Z,85.70
2019-03-10T05:59:01.679Z,85.34
2019-03-10T06:01:32.907Z,85.31
2019-03-10T06:04:04.180Z,85.92
2019-03-10T06:06:35.415Z,86.03
2019-03-10T06:09:08.277Z,85.88
2019-03-10T06:11:39.531Z,85.14
2019-03-10T06:14:10.779Z,84.83
2019-03-10T06:16:42.087Z,84.97
2019-03-10T06:19:13.308Z,84.99
2019-03-10T06:21:44.549Z,85.29
2019-03-10T06:24:15.678Z,85.60
2019-03-10T06:26:46.854Z,86.05
2019-03-10T06:29:17.976Z,86.07
2019-03-10T06:31:49.139Z,86.18
2019-03-10T06:34:20.366Z,86.80
2019-03-10T06:36:51.534Z,86.70
2019-03-10T06:39:22.754Z,86.15
2019-03-10T06:41:53.873Z,85.50
2019-03-10T06:44:25.039Z,85.38
2019-03-10T06:46:56.317Z,85.66
2019-03-10T06:49:28.626Z,85.35
2019-03-10T06:51:59.776Z,84.75
2019-03-10T06:54:31.084Z,85.14
2019-03-10T06:57:02.232Z,85.36
2019-03-10T06:59:36.317Z,84.17
2019-03-10T07:02:07.436Z,83.89
2019-03-10T07:04:38.723Z,83.77
2019-03-10T07:07:09.869Z,84.09
2019-03-10T07:09:41.129Z,83.57
2019-03-10T07:12:12.359Z,83.65
2019-03-10T07:14:43.612Z,83.60
2019-03-10T07:17:14.768Z,84.30
2019-03-10T07:19:45.918Z,83.32
2019-03-10T07:22:17.214Z,83.50
2019-03-10T07:24:51.358Z,83.24
2019-03-10T07:27:24.351Z,83.49
2019-03-10T07:30:14.279Z,83.50
2019-03-10T07:33:00.699Z,84.06
2019-03-10T07:35:49.351Z,84.99
2019-03-10T07:38:43.442Z,84.03
2019-03-10T07:41:45.609Z,83.69
2019-03-10T07:44:25.711Z,83.79
2019-03-10T07:47:14.119Z,84.04
2019-03-10T07:49:54.927Z,83.29
2019-03-10T07:52:44.885Z,83.27
2019-03-10T07:55:44.098Z,83.54
2019-03-10T07:58:40.227Z,83.12
2019-03-10T08:01:29.116Z,83.81
2019-03-10T08:04:28.316Z,84.59
2019-03-10T08:07:16.927Z,85.33
2019-03-10T08:10:22.067Z,85.87
2019-03-10T08:13:08.544Z,86.01
2019-03-10T08:15:57.127Z,83.81
2019-03-10T08:18:37.213Z,84.48
2019-03-10T08:21:18.412Z,84.02
2019-03-10T08:24:05.067Z,83.42
2019-03-10T08:26:58.044Z,83.97
2019-03-10T08:29:50.757Z,84.24
2019-03-10T08:32:58.951Z,83.38
2019-03-10T08:36:00.877Z,83.96
2019-03-10T08:38:52.655Z,84.34
2019-03-10T08:41:57.555Z,83.57
2019-03-10T08:44:36.005Z,83.51
2019-03-10T08:47:41.294Z,81.71
2019-03-10T08:50:30.535Z,81.92
2019-03-10T08:53:19.222Z,81.09
2019-03-10T08:56:27.406Z,81.27
2019-03-10T08:59:15.608Z,81.80
2019-03-10T09:02:08.236Z,81.70
2019-03-10T09:05:06.845Z,80.96
2019-03-10T09:08:07.841Z,80.74
2019-03-10T09:10:53.533Z,81.54
2019-03-10T09:13:43.522Z,82.02
2019-03-10T09:16:33.365Z,82.66
2019-03-10T09:19:12.761Z,81.90
2019-03-10T09:22:03.238Z,81.52
2019-03-10T09:25:02.310Z,81.89
2019-03-10T09:27:55.137Z,81.30
2019-03-10T09:30:43.744Z,81.24
2019-03-10T09:33:28.765Z,81.16
2019-03-10T09:36:12.104Z,80.75
2019-03-10T09:39:08.154Z,80.85
2019-03-10T09:42:07.354Z,80.03
2019-03-10T09:45:03.383Z,80.44
2019-03-10T09:47:53.377Z,81.99
2019-03-10T09:50:41.858Z,83.23
2019-03-10T09:53:24.229Z,83.46
2019-03-10T09:56:20.588Z,83.54
2019-03-10T09:59:03.828Z,84.03
2019-03-10T10:01:55.020Z,83.25
2019-03-10T10:04:56.492Z,83.75
2019-03-10T10:07:54.063Z,84.69
2019-03-10T10:10:48.542Z,86.21
2019-03-10T10:13:50.608Z,85.97
2019-03-10T10:16:40.542Z,84.57
2019-03-10T10:19:29.145Z,84.61
2019-03-10T10:22:28.304Z,84.10
2019-03-10T10:25:33.491Z,84.19
2019-03-10T10:28:13.873Z,84.36
2019-03-10T10:30:56.329Z,84.51
2019-03-10T10:33:46.307Z,84.91
2019-03-10T10:36:34.791Z,84.99
2019-03-10T10:39:26.109Z,85.53
2019-03-10T10:42:14.739Z,85.56
2019-03-10T10:45:00.525Z,85.31
2019-03-10T10:47:51.962Z,84.78
2019-03-10T10:51:18.691Z,83.92
2019-03-10T10:54:12.851Z,84.35
2019-03-10T10:57:20.784Z,83.60
2019-03-10T11:00:06.933Z,83.41
2019-03-10T11:02:51.769Z,83.11
2019-03-10T11:05:54.187Z,83.25
2019-03-10T11:08:44.202Z,82.77
2019-03-10T11:11:41.911Z,82.21
2019-03-10T11:14:30.567Z,82.06
2019-03-10T11:17:23.575Z,81.84
2019-03-10T11:20:15.366Z,79.85
2019-03-10T11:23:08.232Z,78.74
2019-03-10T11:26:00.589Z,76.51
2019-03-10T11:29:05.488Z,76.30
2019-03-10T11:31:55.503Z,72.99
2019-03-10T11:34:46.375Z,71.94
2019-03-10T11:37:39.538Z,70.77
2019-03-10T11:40:33.319Z,70.64
2019-03-10T11:43:13.315Z,69.07
2019-03-10T11:46:14.417Z,70.63
2019-03-10T11:48:59.863Z,71.21
2019-03-10T11:51:50.061Z,71.64
2019-03-10T11:54:52.100Z,74.54
2019-03-10T11:57:45.172Z,76.93
2019-03-10T12:00:28.552Z,75.96
2019-03-10T12:03:17.315Z,76.78
2019-03-10T12:06:08.480Z,77.05
2019-03-10T12:08:52.195Z,76.52
2019-03-10T12:11:24.893Z,77.28
2019-03-10T12:13:56.150Z,76.57
2019-03-10T12:16:27.512Z,75.76
2019-03-10T12:18:58.851Z,75.78
2019-03-10T12:21:30.229Z,75.28
2019-03-10T12:24:01.599Z,76.01
2019-03-10T12:26:33.067Z,77.23
2019-03-10T12:29:04.460Z,77.97
2019-03-10T12:31:35.966Z,78.41
2019-03-10T12:34:07.149Z,77.61
2019-03-10T12:36:40.057Z,76.78
2019-03-10T12:39:11.786Z,76.65
2019-03-10T12:41:43.449Z,75.24
2019-03-10T12:44:14.868Z,75.92
2019-03-10T12:46:46.161Z,74.81
2019-03-10T12:49:17.737Z,74.71
2019-03-10T12:52:04.140Z,74.25
2019-03-10T12:54:35.441Z,74.55
2019-03-10T12:57:06.776Z,73.66
2019-03-10T12:59:38.089Z,74.38
2019-03-10T13:02:09.569Z,74.25
2019-03-10T13:04:41.280Z,75.70
2019-03-10T13:07:13.699Z,77.61
2019-03-10T13:09:45.012Z,78.71
2019-03-10T13:12:16.348Z,79.64
2019-03-10T13:14:58.751Z,81.14
2019-03-10T13:17:20.685Z,81.77
2019-03-10T13:19:55.586Z,82.51
2019-03-10T13:22:28.649Z,83.50
2019-03-10T13:25:00.738Z,83.81
2019-03-10T13:27:32.166Z,83.78
2019-03-10T13:30:07.497Z,81.82
2019-03-10T13:32:38.897Z,81.54
2019-03-10T13:35:10.400Z,81.15
2019-03-10T13:37:41.790Z,79.63
2019-03-10T13:40:13.461Z,78.86
2019-03-10T13:42:45.213Z,76.43
2019-03-10T13:45:16.526Z,75.29
2019-03-10T13:47:47.847Z,73.54
2019-03-10T13:50:19.263Z,72.94
2019-03-10T13:53:09.628Z,69.41
2019-03-10T13:56:03.223Z,68.40
2019-03-10T13:58:34.527Z,68.97
2019-03-10T14:01:06.018Z,69.13
2019-03-10T14:03:37.314Z,69.43
2019-03-10T14:06:08.620Z,68.89
2019-03-10T14:08:39.955Z,66.70
2019-03-10T14:11:11.294Z,64.68
2019-03-10T14:13:42.735Z,64.48
2019-03-10T14:16:14.098Z,64.43
2019-03-10T14:18:45.409Z,65.02
2019-03-10T14:21:16.653Z,65.88
2019-03-10T14:23:47.967Z,67.13
2019-03-10T14:26:19.374Z,64.83
2019-03-10T14:28:50.771Z,65.64
2019-03-10T14:31:22.047Z,65.30
2019-03-10T14:33:53.282Z,65.23
2019-03-10T14:36:24.624Z,65.07
2019-03-10T14:38:55.917Z,65.68
2019-03-10T14:41:27.172Z,64.90
2019-03-10T14:43:58.411Z,65.31
2019-03-10T14:46:29.608Z,65.51
2019-03-10T14:49:00.918Z,65.17
2019-03-10T14:51:32.121Z,64.96
2019-03-10T14:54:03.333Z,65.67
2019-03-10T14:56:34.553Z,65.93
2019-03-10T14:59:06.044Z,66.20
2019-03-10T15:01:37.323Z,65.92
2019-03-10T15:04:08.783Z,66.18
2019-03-10T15:06:39.939Z,67.19
2019-03-10T15:09:13.029Z,66.51
2019-03-10T15:11:44.260Z,67.72
2019-03-10T15:14:15.509Z,66.87
2019-03-10T15:16:46.717Z,67.31
2019-03-10T15:19:18.044Z,68.10
2019-03-10T15:21:49.249Z,68.07
2019-03-10T15:24:20.509Z,67.47
2019-03-10T15:26:51.841Z,67.36
2019-03-10T15:29:23.007Z,66.82
2019-03-10T15:31:54.222Z,67.64
2019-03-10T15:34:25.560Z,67.39
2019-03-10T15:36:56.883Z,67.48
2019-03-10T15:39:28.207Z,66.96
2019-03-10T15:41:59.600Z,67.41
2019-03-10T15:44:30.771Z,68.84
2019-03-10T15:47:02.092Z,68.39
2019-03-10T15:49:33.541Z,67.53
2019-03-10T15:52:07.302Z,68.52
2019-03-10T15:54:37.762Z,69.42
2019-03-10T15:57:09.189Z,68.94
2019-03-10T15:59:40.564Z,70.02
2019-03-10T16:02:14.506Z,69.98
2019-03-10T16:04:45.836Z,70.47
2019-03-10T16:07:17.176Z,73.60
2019-03-10T16:09:48.511Z,75.92
2019-03-10T16:12:20.002Z,75.79
2019-03-10T16:14:51.461Z,77.61
2019-03-10T16:17:22.732Z,77.84
2019-03-10T16:19:54.246Z,78.23
2019-03-10T16:22:25.508Z,77.76
2019-03-10T16:24:57.057Z,78.44
2019-03-10T16:27:28.327Z,78.64
2019-03-10T16:30:01.664Z,77.03
2019-03-10T16:32:32.973Z,77.90
2019-03-10T16:35:04.549Z,77.56
2019-03-10T16:37:35.858Z,76.72
2019-03-10T16:40:09.290Z,76.79
2019-03-10T16:42:40.549Z,76.75
2019-03-10T16:45:18.205Z,76.80
2019-03-10T16:47:49.609Z,76.60
2019-03-10T16:50:21.118Z,76.50
2019-03-10T16:53:11.630Z,76.22
2019-03-10T16:55:43.015Z,76.41
2019-03-10T16:58:14.349Z,76.60
2019-03-10T17:00:45.714Z,77.20
2019-03-10T17:03:17.071Z,76.92
2019-03-10T17:05:48.368Z,77.20
2019-03-10T17:08:22.633Z,77.46
2019-03-10T17:10:54.187Z,77.85
2019-03-10T17:13:25.811Z,77.89
2019-03-10T17:15:57.128Z,78.71
2019-03-10T17:18:31.076Z,78.99
2019-03-10T17:21:04.955Z,79.47
2019-03-10T17:23:39.653Z,79.53
2019-03-10T17:26:10.889Z,79.27
2019-03-10T17:28:44.924Z,80.01
2019-03-10T17:31:16.341Z,79.78
2019-03-10T17:33:47.674Z,80.29
2019-03-10T17:36:19.059Z,79.92
2019-03-10T17:38:50.321Z,80.47
2019-03-10T17:41:23.333Z,80.66
2019-03-10T17:44:02.599Z,81.15
2019-03-10T17:46:36.960Z,82.17
2019-03-10T17:49:08.272Z,82.23
2019-03-10T17:51:40.189Z,81.74
2019-03-10T17:54:11.503Z,82.10
2019-03-10T17:56:42.790Z,81.94
2019-03-10T17:59:14.157Z,82.79
2019-03-10T18:01:45.516Z,82.61
2019-03-10T18:04:16.878Z,82.84
2019-03-10T18:06:48.726Z,82.73
2019-03-10T18:09:23.166Z,82.54
2019-03-10T18:11:54.364Z,82.53
2019-03-10T18:14:28.794Z,83.05
2019-03-10T18:17:00.099Z,83.01
2019-03-10T18:19:31.421Z,83.62
2019-03-10T18:22:02.714Z,83.57
2019-03-10T18:24:35.798Z,84.09
2019-03-10T18:27:07.064Z,84.23
2019-03-10T18:29:39.246Z,83.15
2019-03-10T18:32:11.014Z,83.68
2019-03-10T18:34:42.729Z,83.83
2019-03-10T18:37:14.452Z,83.45
2019-03-10T18:39:48.504Z,83.82
2019-03-10T18:42:22.763Z,83.70
2019-03-10T18:44:54.746Z,83.36
2019-03-10T18:47:27.322Z,83.80
2019-03-10T18:50:08.720Z,84.23
2019-03-10T18:52:40.020Z,84.59
2019-03-10T18:55:15.385Z,83.60
2019-03-10T18:57:48.413Z,82.94
2019-03-10T19:00:23.006Z,82.63
2019-03-10T19:02:59.990Z,83.00
2019-03-10T19:05:38.554Z,82.65
2019-03-10T19:08:10.003Z,83.13
2019-03-10T19:10:41.296Z,83.33
2019-03-10T19:13:12.648Z,83.93
2019-03-10T19:15:43.962Z,83.97
2019-03-10T19:18:15.367Z,84.26
2019-03-10T19:20:46.772Z,84.53
2019-03-10T19:23:18.286Z,84.94
2019-03-10T19:25:49.607Z,84.82
2019-03-10T19:28:20.970Z,85.11
2019-03-10T19:30:53.092Z,84.70
2019-03-10T19:33:24.433Z,83.67
2019-03-10T19:35:56.074Z,83.22
2019-03-10T19:38:28.916Z,83.07
2019-03-10T19:41:00.472Z,83.42
2019-03-10T19:43:31.716Z,83.53
2019-03-10T19:46:04.588Z,83.59
2019-03-10T19:48:36.109Z,83.77
2019-03-10T19:51:09.263Z,83.87
2019-03-10T19:53:40.714Z,83.86
2019-03-10T19:56:12.197Z,83.75
2019-03-10T19:58:43.614Z,83.42
2019-03-10T20:01:18.111Z,83.27
2019-03-10T20:03:49.495Z,82.89
2019-03-10T20:06:23.604Z,83.08
2019-03-10T20:08:57.190Z,82.15
2019-03-10T20:11:29.113Z,81.56
2019-03-10T20:14:03.120Z,80.64
2019-03-10T20:16:37.507Z,80.81
2019-03-10T20:19:12.127Z,80.37
2019-03-10T20:21:47.070Z,80.41
2019-03-10T20:24:19.042Z,81.04
2019-03-10T20:26:52.990Z,81.56
2019-03-10T20:29:24.319Z,80.19
2019-03-10T20:31:58.309Z,81.25
2019-03-10T20:34:29.612Z,81.90
2019-03-10T20:37:00.906Z,82.51
2019-03-10T20:39:36.121Z,82.45
2019-03-10T20:42:06.981Z,82.92
2019-03-10T20:44:38.322Z,82.62
2019-03-10T20:47:09.677Z,83.14
2019-03-10T20:49:40.895Z,83.32
2019-03-10T20:52:12.262Z,83.62
2019-03-10T20:54:43.818Z,83.43
2019-03-10T20:57:15.491Z,83.29
2019-03-10T20:59:46.861Z,83.20
2019-03-10T21:02:18.201Z,82.12
2019-03-10T21:04:49.818Z,82.50
2019-03-10T21:07:24.181Z,82.76
2019-03-10T21:09:55.636Z,83.11
2019-03-10T21:12:27.061Z,83.47
2019-03-10T21:14:58.950Z,83.29
2019-03-10T21:17:32.404Z,83.90
2019-03-10T21:20:06.807Z,84.54
2019-03-10T21:22:38.415Z,84.78
2019-03-10T21:25:19.094Z,84.24
2019-03-10T21:27:50.572Z,83.46
2019-03-10T21:30:26.022Z,82.78
2019-03-10T21:32:58.148Z,82.84
2019-03-10T21:35:29.343Z,83.19
2019-03-10T21:38:03.388Z,83.55
2019-03-10T21:40:36.202Z,83.62
2019-03-10T21:43:07.449Z,84.26
2019-03-10T21:45:42.255Z,84.69
2019-03-10T21:48:13.540Z,84.95
2019-03-10T21:50:49.753Z,84.95
2019-03-10T21:54:05.419Z,84.86
2019-03-10T21:56:37.512Z,85.24
2019-03-10T21:59:08.805Z,85.72
2019-03-10T22:01:40.102Z,85.83
2019-03-10T22:04:11.813Z,85.45
2019-03-10T22:06:43.016Z,85.48
2019-03-10T22:09:15.784Z,85.35
2019-03-10T22:11:54.470Z,84.98
2019-03-10T22:14:43.438Z,84.15
2019-03-10T22:17:23.526Z,83.70
2019-03-10T22:19:58.085Z,83.29
2019-03-10T22:22:40.003Z,83.34
2019-03-10T22:25:15.913Z,83.11
2019-03-10T22:27:49.649Z,82.49
2019-03-10T22:30:25.772Z,82.76
2019-03-10T22:32:57.050Z,82.88
2019-03-10T22:35:48.451Z,83.20
2019-03-10T22:38:20.900Z,83.08
2019-03-10T22:40:54.175Z,82.87
2019-03-10T22:43:43.384Z,83.30
2019-03-10T22:46:16.356Z,83.78
2019-03-10T22:48:49.941Z,83.96
2019-03-10T22:51:33.421Z,84.23
2019-03-10T22:54:17.539Z,84.58
2019-03-10T22:56:50.017Z,84.37
2019-03-10T22:59:21.249Z,84.49
2019-03-10T23:01:52.557Z,84.14
2019-03-10T23:04:26.725Z,83.39
2019-03-10T23:06:58.004Z,82.85
2019-03-10T23:09:29.197Z,82.86
2019-03-10T23:12:00.387Z,82.94
2019-03-10T23:14:31.645Z,82.71
2019-03-10T23:17:02.989Z,83.16
2019-03-10T23:19:36.999Z,82.85
2019-03-10T23:22:08.252Z,82.52
2019-03-10T23:24:39.528Z,82.86
2019-03-10T23:27:10.787Z,81.86
2019-03-10T23:29:42.027Z,81.48
2019-03-10T23:32:13.291Z,80.77
2019-03-10T23:34:44.618Z,80.94
2019-03-10T23:37:19.296Z,80.46
2019-03-10T23:39:50.523Z,79.38
2019-03-10T23:42:21.748Z,78.82
2019-03-10T23:44:53.008Z,78.24
2019-03-10T23:47:24.165Z,77.06
2019-03-10T23:49:55.433Z,76.54
2019-03-10T23:52:26.671Z,74.95
2019-03-10T23:54:57.915Z,75.46
2019-03-10T23:57:29.012Z,75.35
